Terminal Aerodrome Forecast
Issued by NWS

Home | Current Version | Previous Version | Text Only | Print | Product List | Glossary On
Versions: 1 2 3 4 5 6 7 8 9 10 11 12 13 14 15
000
FTUS42 TJSJ 191700 CCA
TAFKPK
TAF COR
TKPK 191744Z 1918/2018 07010KT P6SM VCTS SCT025CB
     FM192300 07008KT P6SM VCSH FEW025
      AMD NOT SKED 2002/2011=

USA.gov is the U.S. government's official web portal to all federal, state and local government web resources and services.